createdAt,value
2019-04-10T00:01:01.527Z,27.30
2019-04-10T00:03:34.453Z,27.90
2019-04-10T00:06:00.497Z,26.07
2019-04-10T00:08:29.086Z,26.00
2019-04-10T00:10:58.551Z,27.63
2019-04-10T00:13:28.849Z,27.63
2019-04-10T00:15:57.441Z,28.17
2019-04-10T00:18:26.283Z,28.70
2019-04-10T00:20:54.889Z,28.10
2019-04-10T00:23:23.345Z,27.90
2019-04-10T00:25:52.913Z,28.00
2019-04-10T00:28:21.623Z,26.80
2019-04-10T00:30:50.125Z,27.93
2019-04-10T00:33:18.804Z,27.27
2019-04-10T00:35:47.719Z,27.43
2019-04-10T00:38:16.287Z,26.00
2019-04-10T00:40:45.504Z,27.30
2019-04-10T00:43:14.895Z,26.40
2019-04-10T00:45:45.984Z,27.50
2019-04-10T00:48:15.478Z,29.00
2019-04-10T00:50:44.597Z,28.20
2019-04-10T00:53:13.287Z,29.30
2019-04-10T00:55:41.943Z,27.40
2019-04-10T00:58:10.500Z,27.00
2019-04-10T01:00:39.279Z,27.03
2019-04-10T01:03:08.064Z,28.47
2019-04-10T01:05:37.527Z,28.27
2019-04-10T01:08:06.565Z,29.27
2019-04-10T01:10:35.319Z,26.70
2019-04-10T01:13:04.811Z,27.30
2019-04-10T01:15:34.427Z,28.67
2019-04-10T01:18:02.989Z,30.30
2019-04-10T01:20:31.432Z,29.33
2019-04-10T01:22:59.861Z,29.87
2019-04-10T01:25:28.395Z,29.70
2019-04-10T01:27:56.931Z,32.23
2019-04-10T01:30:26.352Z,31.30
2019-04-10T01:32:54.993Z,32.73
2019-04-10T01:35:24.452Z,32.70
2019-04-10T01:37:57.693Z,31.30
2019-04-10T01:40:23.442Z,34.80
2019-04-10T01:43:02.389Z,35.63
2019-04-10T01:45:22.085Z,35.83
2019-04-10T01:47:51.208Z,37.30
2019-04-10T01:50:20.110Z,38.20
2019-04-10T01:52:49.163Z,41.60
2019-04-10T01:55:25.367Z,45.87
2019-04-10T01:57:48.511Z,44.73
2019-04-10T02:00:19.526Z,46.90
2019-04-10T02:02:52.222Z,50.13
2019-04-10T02:05:20.773Z,50.10
2019-04-10T02:08:02.093Z,51.60
2019-04-10T02:10:20.336Z,50.90
2019-04-10T02:12:48.926Z,51.27
2019-04-10T02:15:17.783Z,56.63
2019-04-10T02:17:46.638Z,51.57
2019-04-10T02:20:15.473Z,53.20
2019-04-10T02:22:43.908Z,56.00
2019-04-10T02:25:13.705Z,54.80
2019-04-10T02:27:42.686Z,55.10
2019-04-10T02:30:14.420Z,52.87
2019-04-10T02:32:45.272Z,52.33
2019-04-10T02:35:16.956Z,52.23
2019-04-10T02:37:43.399Z,57.00
2019-04-10T02:40:13.026Z,55.43
2019-04-10T02:42:43.093Z,55.00
2019-04-10T02:45:12.605Z,57.90
2019-04-10T02:47:43.143Z,58.57
2019-04-10T02:50:14.051Z,57.20
2019-04-10T02:52:43.303Z,60.43
2019-04-10T02:55:12.400Z,59.70
2019-04-10T02:57:41.426Z,61.30
2019-04-10T03:00:12.787Z,61.23
2019-04-10T03:02:41.608Z,58.97
2019-04-10T03:05:10.967Z,62.23
2019-04-10T03:07:40.315Z,58.90
2019-04-10T03:10:20.547Z,61.03
2019-04-10T03:12:41.115Z,62.73
2019-04-10T03:15:12.371Z,59.33
2019-04-10T03:17:40.652Z,60.67
2019-04-10T03:20:10.023Z,58.27
2019-04-10T03:22:38.874Z,61.57
2019-04-10T03:25:08.902Z,61.10
2019-04-10T03:27:38.560Z,59.80
2019-04-10T03:30:10.148Z,59.10
2019-04-10T03:32:48.001Z,59.83
2019-04-10T03:35:23.337Z,57.10
2019-04-10T03:37:52.823Z,60.50
2019-04-10T03:40:21.690Z,59.43
2019-04-10T03:42:50.298Z,57.07
2019-04-10T03:45:18.723Z,60.07
2019-04-10T03:47:47.365Z,57.17
2019-04-10T03:50:16.338Z,60.13
2019-04-10T03:52:45.357Z,59.30
2019-04-10T03:55:13.903Z,59.70
2019-04-10T03:57:42.834Z,57.30
2019-04-10T04:00:12.095Z,57.20
2019-04-10T04:02:40.604Z,56.77
2019-04-10T04:05:09.204Z,59.33
2019-04-10T04:07:38.786Z,58.30
2019-04-10T04:10:09.332Z,58.00
2019-04-10T04:12:37.753Z,60.80
2019-04-10T04:15:07.037Z,57.87
2019-04-10T04:17:36.036Z,59.40
2019-04-10T04:20:06.406Z,59.40
2019-04-10T04:22:35.045Z,59.60
2019-04-10T04:25:04.585Z,55.70
2019-04-10T04:27:33.564Z,57.20
2019-04-10T04:30:02.124Z,55.73
2019-04-10T04:32:31.501Z,57.60
2019-04-10T04:35:00.100Z,57.07
2019-04-10T04:37:28.553Z,57.50
2019-04-10T04:39:57.009Z,58.30
2019-04-10T04:42:26.465Z,59.20
2019-04-10T04:44:55.995Z,55.73
2019-04-10T04:47:24.831Z,54.70
2019-04-10T04:49:54.328Z,59.73
2019-04-10T04:52:23.851Z,56.70
2019-04-10T04:54:53.287Z,56.77
2019-04-10T04:57:22.642Z,57.03
2019-04-10T04:59:51.209Z,57.80
2019-04-10T05:02:21.977Z,61.50
2019-04-10T05:04:51.462Z,58.10
2019-04-10T05:07:20.325Z,58.23
2019-04-10T05:09:50.336Z,57.93
2019-04-10T05:12:20.092Z,58.00
2019-04-10T05:14:48.817Z,57.33
2019-04-10T05:17:18.333Z,59.70
2019-04-10T05:19:46.970Z,58.23
2019-04-10T05:22:15.420Z,58.30
2019-04-10T05:24:44.628Z,57.90
2019-04-10T05:27:14.118Z,57.97
2019-04-10T05:29:43.050Z,56.77
2019-04-10T05:32:11.580Z,56.77
2019-04-10T05:34:40.423Z,59.83
2019-04-10T05:37:09.428Z,59.10
2019-04-10T05:39:43.161Z,58.23
2019-04-10T05:42:08.520Z,58.00
2019-04-10T05:44:38.156Z,59.77
2019-04-10T05:47:07.380Z,58.63
2019-04-10T05:49:35.883Z,57.50
2019-04-10T05:52:04.496Z,59.07
2019-04-10T05:54:33.339Z,59.93
2019-04-10T05:57:01.834Z,57.00
2019-04-10T05:59:30.284Z,57.57
2019-04-10T06:01:58.961Z,60.30
2019-04-10T06:04:27.594Z,58.07
2019-04-10T06:06:56.834Z,59.03
2019-04-10T06:09:25.454Z,57.20
2019-04-10T06:11:53.870Z,54.43
2019-04-10T06:14:22.314Z,57.47
2019-04-10T06:16:51.045Z,54.37
2019-04-10T06:19:20.003Z,56.73
2019-04-10T06:21:48.563Z,56.03
2019-04-10T06:24:18.220Z,55.90
2019-04-10T06:26:47.916Z,56.70
2019-04-10T06:29:17.102Z,56.37
2019-04-10T06:31:45.714Z,57.23
2019-04-10T06:34:16.170Z,54.87
2019-04-10T06:36:44.307Z,54.20
2019-04-10T06:39:12.990Z,52.70
2019-04-10T06:41:41.540Z,54.20
2019-04-10T06:44:10.045Z,57.00
2019-04-10T06:46:39.416Z,57.30
2019-04-10T06:49:09.322Z,55.10
2019-04-10T06:51:37.840Z,50.80
2019-04-10T06:54:09.865Z,51.40
2019-04-10T06:56:37.512Z,50.10
2019-04-10T06:59:06.673Z,52.77
2019-04-10T07:01:47.166Z,52.33
2019-04-10T07:04:07.987Z,53.27
2019-04-10T07:06:50.370Z,51.67
2019-04-10T07:09:07.590Z,51.67
2019-04-10T07:11:36.576Z,50.90
2019-04-10T07:14:05.251Z,48.30
2019-04-10T07:16:34.442Z,50.57
2019-04-10T07:19:06.190Z,49.53
2019-04-10T07:21:35.548Z,51.03
2019-04-10T07:24:06.745Z,48.20
2019-04-10T07:26:40.340Z,47.70
2019-04-10T07:29:05.044Z,49.83
2019-04-10T07:31:35.332Z,50.60
2019-04-10T07:34:03.710Z,48.90
2019-04-10T07:36:32.889Z,50.63
2019-04-10T07:39:01.570Z,51.50
2019-04-10T07:41:30.061Z,50.20
2019-04-10T07:43:58.751Z,49.37
2019-04-10T07:46:28.297Z,48.20
2019-04-10T07:48:56.824Z,47.90
2019-04-10T07:51:25.595Z,47.87
2019-04-10T07:53:54.258Z,45.60
2019-04-10T07:56:23.114Z,46.40
2019-04-10T07:58:51.742Z,45.87
2019-04-10T08:01:20.469Z,47.13
2019-04-10T08:03:51.324Z,40.93
2019-04-10T08:06:19.951Z,44.57
2019-04-10T08:08:49.162Z,44.87
2019-04-10T08:11:17.746Z,44.17
2019-04-10T08:13:47.096Z,41.90
2019-04-10T08:16:16.941Z,43.07
2019-04-10T08:18:45.748Z,44.47
2019-04-10T08:21:14.273Z,45.80
2019-04-10T08:23:42.818Z,42.33
2019-04-10T08:26:12.166Z,45.17
2019-04-10T08:28:41.298Z,43.60
2019-04-10T08:31:09.776Z,41.30
2019-04-10T08:33:38.653Z,45.10
2019-04-10T08:36:07.480Z,42.37
2019-04-10T08:38:36.109Z,45.90
2019-04-10T08:41:05.151Z,43.77
2019-04-10T08:43:34.163Z,42.40
2019-04-10T08:46:03.502Z,41.80
2019-04-10T08:48:33.091Z,43.03
2019-04-10T08:51:01.640Z,42.33
2019-04-10T08:53:30.666Z,39.63
2019-04-10T08:55:59.197Z,39.37
2019-04-10T08:58:27.638Z,42.10
2019-04-10T09:00:56.600Z,40.97
2019-04-10T09:03:25.269Z,41.90
2019-04-10T09:05:53.690Z,43.37
2019-04-10T09:08:22.123Z,41.43
2019-04-10T09:10:50.557Z,43.10
2019-04-10T09:13:20.060Z,42.43
2019-04-10T09:15:49.900Z,42.27
2019-04-10T09:18:18.526Z,42.47
2019-04-10T09:20:47.017Z,43.40
2019-04-10T09:23:25.107Z,43.80
2019-04-10T09:25:45.686Z,41.20
2019-04-10T09:28:14.153Z,42.40
2019-04-10T09:30:42.799Z,45.80
2019-04-10T09:33:20.868Z,42.10
2019-04-10T09:35:41.728Z,42.93
2019-04-10T09:38:10.599Z,42.33
2019-04-10T09:40:40.264Z,43.83
2019-04-10T09:43:09.361Z,40.83
2019-04-10T09:45:39.204Z,40.77
2019-04-10T09:48:08.510Z,39.20
2019-04-10T09:50:37.040Z,42.97
2019-04-10T09:53:05.565Z,43.60
2019-04-10T09:55:34.134Z,39.73
2019-04-10T09:58:02.745Z,39.00
2019-04-10T10:00:31.942Z,43.73
2019-04-10T10:03:01.473Z,38.80
2019-04-10T10:05:30.705Z,41.50
2019-04-10T10:08:00.185Z,41.37
2019-04-10T10:10:29.096Z,38.97
2019-04-10T10:12:57.636Z,40.53
2019-04-10T10:15:27.342Z,44.13
2019-04-10T10:17:57.057Z,41.70
2019-04-10T10:20:25.962Z,40.40
2019-04-10T10:22:55.672Z,40.70
2019-04-10T10:25:24.272Z,40.97
2019-04-10T10:27:52.842Z,40.60
2019-04-10T10:30:21.403Z,41.33
2019-04-10T10:32:50.940Z,41.80
2019-04-10T10:35:19.898Z,41.20
2019-04-10T10:37:48.551Z,38.13
2019-04-10T10:40:17.758Z,41.77
2019-04-10T10:42:47.686Z,41.40
2019-04-10T10:45:16.847Z,40.90
2019-04-10T10:47:46.365Z,39.03
2019-04-10T10:50:15.241Z,40.87
2019-04-10T10:52:43.852Z,42.77
2019-04-10T10:55:13.580Z,40.80
2019-04-10T10:57:43.385Z,40.17
2019-04-10T11:00:13.350Z,40.10
2019-04-10T11:02:41.804Z,39.43
2019-04-10T11:05:10.737Z,40.73
2019-04-10T11:07:40.411Z,38.87
2019-04-10T11:10:09.468Z,42.47
2019-04-10T11:12:38.480Z,41.90
2019-04-10T11:15:07.807Z,39.80
2019-04-10T11:17:38.524Z,40.27
2019-04-10T11:20:10.064Z,38.67
2019-04-10T11:22:39.843Z,40.70
2019-04-10T11:25:09.089Z,40.80
2019-04-10T11:27:39.192Z,39.20
2019-04-10T11:30:10.037Z,39.77
2019-04-10T11:32:38.757Z,41.60
2019-04-10T11:35:08.314Z,40.80
2019-04-10T11:37:43.829Z,39.97
2019-04-10T11:40:08.881Z,40.67
2019-04-10T11:42:39.741Z,39.93
2019-04-10T11:45:10.514Z,41.57
2019-04-10T11:47:39.565Z,39.90
2019-04-10T11:50:13.468Z,40.03
2019-04-10T11:52:45.244Z,36.83
2019-04-10T11:55:15.951Z,37.37
2019-04-10T11:57:41.959Z,37.93
2019-04-10T12:00:19.123Z,37.83
2019-04-10T12:02:46.970Z,39.40
2019-04-10T12:05:18.529Z,37.17
2019-04-10T12:08:22.076Z,36.60
2019-04-10T12:12:43.946Z,35.77
2019-04-10T12:15:12.626Z,36.97
2019-04-10T12:17:42.986Z,35.37
2019-04-10T12:20:11.563Z,34.30
2019-04-10T12:22:40.700Z,35.27
2019-04-10T12:25:10.216Z,35.63
2019-04-10T12:27:41.178Z,32.80
2019-04-10T12:30:13.281Z,33.03
2019-04-10T12:32:42.994Z,35.03
2019-04-10T12:35:13.831Z,32.90
2019-04-10T12:37:43.355Z,33.30
2019-04-10T12:40:12.265Z,34.13
2019-04-10T12:42:40.744Z,31.87
2019-04-10T12:45:09.840Z,31.43
2019-04-10T12:47:38.321Z,33.87
2019-04-10T12:50:08.303Z,34.83
2019-04-10T12:52:36.748Z,32.47
2019-04-10T12:55:08.617Z,30.17
2019-04-10T12:57:37.323Z,31.87
2019-04-10T13:00:11.713Z,29.03
2019-04-10T13:02:40.744Z,30.70
2019-04-10T13:05:09.664Z,31.17
2019-04-10T13:07:38.338Z,28.73
2019-04-10T13:10:07.148Z,30.50
2019-04-10T13:12:35.605Z,30.80
2019-04-10T13:15:08.870Z,30.33
2019-04-10T13:17:38.520Z,29.63
2019-04-10T13:20:10.379Z,28.17
2019-04-10T13:22:40.102Z,30.93
2019-04-10T13:25:10.260Z,26.27
2019-04-10T13:27:39.152Z,26.10
2019-04-10T13:30:12.588Z,26.07
2019-04-10T13:32:40.348Z,25.53
2019-04-10T13:35:10.210Z,22.97
2019-04-10T13:37:38.964Z,25.20
2019-04-10T13:40:07.850Z,25.13
2019-04-10T13:42:37.172Z,25.43
2019-04-10T13:45:07.517Z,26.73
2019-04-10T13:47:36.063Z,24.23
2019-04-10T13:50:06.451Z,25.40
2019-04-10T13:52:36.413Z,25.57
2019-04-10T13:55:08.399Z,26.00
2019-04-10T13:57:37.041Z,25.20
2019-04-10T14:00:09.294Z,24.90
2019-04-10T14:02:38.035Z,23.70
2019-04-10T14:05:09.478Z,21.30
2019-04-10T14:07:38.018Z,25.70
2019-04-10T14:10:10.572Z,24.17
2019-04-10T14:12:39.109Z,23.80
2019-04-10T14:15:08.381Z,23.13
2019-04-10T14:17:37.636Z,23.80
2019-04-10T14:20:06.990Z,22.80
2019-04-10T14:22:37.899Z,24.20
2019-04-10T14:25:09.497Z,23.33
2019-04-10T14:27:38.507Z,20.30
2019-04-10T14:30:11.202Z,22.50
2019-04-10T14:32:40.013Z,22.67
2019-04-10T14:35:09.841Z,20.00
2019-04-10T14:37:38.596Z,21.33
2019-04-10T14:40:09.741Z,21.20
2019-04-10T14:42:38.440Z,21.33
2019-04-10T14:45:07.366Z,21.13
2019-04-10T14:47:36.186Z,21.87
2019-04-10T14:50:05.817Z,23.00
2019-04-10T14:52:34.948Z,21.50
2019-04-10T14:55:04.044Z,18.63
2019-04-10T14:57:32.844Z,19.47
2019-04-10T15:00:01.466Z,20.40
2019-04-10T15:02:30.722Z,22.10
2019-04-10T15:04:59.515Z,21.10
2019-04-10T15:07:28.958Z,21.43
2019-04-10T15:09:57.567Z,20.27
2019-04-10T15:12:25.983Z,20.83
2019-04-10T15:14:54.489Z,19.87
2019-04-10T15:17:23.142Z,21.77
2019-04-10T15:19:52.595Z,22.87
2019-04-10T15:22:23.385Z,19.67
2019-04-10T15:24:52.067Z,20.67
2019-04-10T15:27:21.563Z,21.93
2019-04-10T15:29:50.136Z,19.93
2019-04-10T15:32:18.586Z,20.23
2019-04-10T15:34:48.255Z,23.10
2019-04-10T15:37:17.209Z,23.00
2019-04-10T15:39:46.384Z,21.80
2019-04-10T15:42:16.154Z,23.17
2019-04-10T15:44:44.682Z,23.23
2019-04-10T15:47:18.351Z,21.83
2019-04-10T15:49:43.279Z,21.00
2019-04-10T15:52:12.120Z,21.67
2019-04-10T15:54:40.676Z,21.17
2019-04-10T15:57:10.733Z,21.50
2019-04-10T15:59:39.331Z,21.43
2019-04-10T16:02:07.882Z,22.20
2019-04-10T16:04:36.338Z,22.20
2019-04-10T16:07:06.156Z,21.47
2019-04-10T16:09:44.791Z,22.33
2019-04-10T16:12:16.529Z,20.17
2019-04-10T16:14:46.474Z,20.90
2019-04-10T16:17:22.896Z,22.00
2019-04-10T16:20:06.130Z,22.13
2019-04-10T16:22:36.316Z,22.77
2019-04-10T16:25:08.229Z,22.27
2019-04-10T16:27:36.970Z,22.73
2019-04-10T16:30:08.714Z,23.10
2019-04-10T16:32:37.341Z,21.60
2019-04-10T16:35:07.280Z,22.27
2019-04-10T16:37:35.993Z,21.73
2019-04-10T16:40:08.492Z,23.47
2019-04-10T16:42:37.152Z,26.27
2019-04-10T16:45:08.054Z,22.97
2019-04-10T16:47:36.597Z,22.83
2019-04-10T16:50:06.862Z,22.40
2019-04-10T16:52:35.301Z,24.00
2019-04-10T16:55:06.258Z,25.00
2019-04-10T16:57:34.874Z,25.63
2019-04-10T17:00:04.858Z,28.27
2019-04-10T17:02:33.839Z,24.10
2019-04-10T17:05:02.431Z,26.07
2019-04-10T17:07:30.922Z,29.47
2019-04-10T17:10:11.520Z,25.90
2019-04-10T17:12:29.708Z,26.70
2019-04-10T17:14:58.171Z,27.57
2019-04-10T17:17:26.626Z,28.60
2019-04-10T17:19:57.545Z,27.73
2019-04-10T17:22:32.376Z,28.60
2019-04-10T17:24:55.827Z,26.17
2019-04-10T17:27:25.610Z,27.83
2019-04-10T17:29:55.262Z,30.03
2019-04-10T17:32:24.371Z,27.87
2019-04-10T17:34:52.900Z,25.93
2019-04-10T17:37:21.599Z,26.90
2019-04-10T17:39:51.381Z,26.80
2019-04-10T17:42:20.031Z,28.40
2019-04-10T17:44:49.687Z,27.97
2019-04-10T17:47:18.606Z,27.23
2019-04-10T17:49:47.710Z,28.47
2019-04-10T17:52:16.615Z,27.70
2019-04-10T17:54:47.082Z,27.73
2019-04-10T17:57:15.916Z,25.77
2019-04-10T17:59:45.409Z,25.83
2019-04-10T18:02:13.924Z,25.47
2019-04-10T18:04:42.469Z,25.67
2019-04-10T18:07:12.050Z,26.60
2019-04-10T18:09:40.969Z,26.50
2019-04-10T18:12:10.590Z,26.97
2019-04-10T18:14:40.880Z,28.30
2019-04-10T18:17:09.336Z,27.17
2019-04-10T18:19:38.608Z,26.70
2019-04-10T18:22:07.211Z,26.43
2019-04-10T18:24:35.860Z,28.20
2019-04-10T18:27:04.465Z,28.50
2019-04-10T18:29:33.046Z,26.60
2019-04-10T18:32:02.297Z,27.33
2019-04-10T18:34:31.231Z,29.17
2019-04-10T18:37:02.260Z,26.97
2019-04-10T18:39:30.442Z,27.93
2019-04-10T18:41:59.751Z,26.77
2019-04-10T18:44:29.088Z,28.53
2019-04-10T18:46:57.630Z,26.30
2019-04-10T18:49:27.407Z,27.60
2019-04-10T18:51:56.340Z,28.73
2019-04-10T18:54:24.986Z,28.40
2019-04-10T18:56:53.606Z,26.93
2019-04-10T18:59:24.672Z,28.80
2019-04-10T19:02:04.044Z,29.63
2019-04-10T19:04:34.821Z,26.83
2019-04-10T19:07:03.542Z,28.70
2019-04-10T19:09:33.776Z,30.03
2019-04-10T19:12:04.515Z,29.03
2019-04-10T19:14:36.173Z,30.07
2019-04-10T19:17:02.866Z,28.83
2019-04-10T19:19:32.490Z,27.23
2019-04-10T19:22:02.061Z,27.90
2019-04-10T19:24:32.059Z,28.80
2019-04-10T19:27:02.132Z,29.00
2019-04-10T19:29:31.787Z,29.03
2019-04-10T19:32:02.159Z,28.90
2019-04-10T19:34:33.683Z,28.03
2019-04-10T19:37:01.675Z,29.40
2019-04-10T19:39:30.199Z,29.77
2019-04-10T19:41:58.811Z,29.00
2019-04-10T19:44:27.335Z,29.07
2019-04-10T19:46:56.196Z,28.77
2019-04-10T19:49:24.997Z,29.50
2019-04-10T19:51:53.545Z,30.73
2019-04-10T19:54:22.234Z,31.30
2019-04-10T19:56:51.012Z,36.20
2019-04-10T19:59:20.761Z,34.70
2019-04-10T20:01:50.589Z,30.53
2019-04-10T20:04:19.133Z,31.20
2019-04-10T20:06:48.784Z,30.00
2019-04-10T20:09:18.486Z,30.03
2019-04-10T20:11:52.634Z,31.53
2019-04-10T20:14:17.409Z,29.53
2019-04-10T20:16:47.087Z,30.30
2019-04-10T20:19:15.756Z,32.50
2019-04-10T20:21:44.241Z,30.10
2019-04-10T20:24:12.734Z,30.67
2019-04-10T20:26:41.327Z,27.07
2019-04-10T20:29:10.787Z,28.80
2019-04-10T20:31:39.620Z,27.00
2019-04-10T20:34:09.404Z,28.17
2019-04-10T20:36:38.855Z,26.60
2019-04-10T20:39:09.438Z,30.50
2019-04-10T20:41:46.591Z,28.10
2019-04-10T20:44:09.294Z,25.57
2019-04-10T20:46:38.214Z,26.57
2019-04-10T20:49:08.455Z,26.43
2019-04-10T20:51:37.724Z,26.23
2019-04-10T20:54:06.627Z,24.87
2019-04-10T20:56:35.203Z,25.73
2019-04-10T20:59:03.766Z,25.27
2019-04-10T21:01:33.701Z,21.50
2019-04-10T21:04:03.132Z,20.90
2019-04-10T21:06:31.861Z,20.63
2019-04-10T21:09:01.107Z,21.30
2019-04-10T21:11:29.669Z,19.20
2019-04-10T21:13:58.675Z,18.73
2019-04-10T21:16:27.383Z,18.30
2019-04-10T21:18:55.997Z,17.37
2019-04-10T21:21:24.518Z,18.97
2019-04-10T21:23:54.196Z,19.13
2019-04-10T21:26:24.549Z,17.33
2019-04-10T21:28:53.702Z,17.30
2019-04-10T21:31:40.590Z,16.07
2019-04-10T21:34:22.846Z,17.97
2019-04-10T21:36:51.378Z,16.57
2019-04-10T21:39:21.101Z,16.87
2019-04-10T21:41:49.704Z,16.17
2019-04-10T21:44:18.347Z,17.73
2019-04-10T21:46:46.806Z,17.37
2019-04-10T21:49:15.525Z,16.57
2019-04-10T21:51:44.857Z,15.10
2019-04-10T21:54:14.089Z,15.87
2019-04-10T21:56:43.118Z,16.60
2019-04-10T21:59:11.780Z,15.17
2019-04-10T22:01:40.453Z,15.60
2019-04-10T22:04:10.211Z,15.40
2019-04-10T22:06:40.390Z,15.07
2019-04-10T22:09:14.536Z,14.20
2019-04-10T22:11:45.622Z,15.03
2019-04-10T22:14:15.078Z,14.07
2019-04-10T22:16:44.353Z,15.00
2019-04-10T22:19:12.860Z,14.07
2019-04-10T22:21:41.943Z,14.73
2019-04-10T22:24:11.502Z,15.17
2019-04-10T22:26:40.323Z,14.93
2019-04-10T22:29:10.609Z,14.33
2019-04-10T22:31:39.512Z,14.73
2019-04-10T22:34:10.166Z,17.50
2019-04-10T22:36:39.417Z,15.00
2019-04-10T22:39:09.586Z,14.93
2019-04-10T22:41:38.587Z,15.13
2019-04-10T22:44:07.631Z,13.63
2019-04-10T22:46:36.315Z,14.33
2019-04-10T22:49:04.888Z,14.27
2019-04-10T22:51:33.332Z,13.90
2019-04-10T22:54:01.914Z,15.30
2019-04-10T22:56:31.495Z,13.67
2019-04-10T22:59:00.010Z,13.00
2019-04-10T23:01:29.307Z,12.97
2019-04-10T23:03:57.754Z,12.83
2019-04-10T23:06:26.190Z,12.93
2019-04-10T23:08:55.821Z,13.97
2019-04-10T23:11:34.823Z,13.50
2019-04-10T23:13:54.568Z,14.33
2019-04-10T23:16:24.141Z,12.30
2019-04-10T23:18:53.857Z,13.33
2019-04-10T23:21:22.817Z,13.87
2019-04-10T23:23:51.626Z,12.37
2019-04-10T23:26:20.778Z,13.23
2019-04-10T23:28:50.117Z,13.13
2019-04-10T23:31:18.576Z,12.23
2019-04-10T23:33:48.163Z,14.07
2019-04-10T23:36:16.813Z,12.70
2019-04-10T23:38:45.902Z,13.00
2019-04-10T23:41:15.396Z,13.10
2019-04-10T23:43:46.111Z,13.20
2019-04-10T23:46:14.666Z,13.10
2019-04-10T23:48:43.116Z,13.93
2019-04-10T23:51:12.607Z,13.30
2019-04-10T23:53:41.165Z,13.70
2019-04-10T23:56:09.580Z,12.77
2019-04-10T23:58:38.134Z,12.97
